Nearby METAR Reports

 

KBAX - Bad Axe, Michigan, USA
Distance from station: ESE 22mi, 35km
Updated: Thu, 25-Feb-2021 10:55pm EST
Clear
Clear
 Wind from calm
Wind: Calm
Temperature: 18°F , -8°C
Dew Point: 16°F , -9°C
Humidity: 93%
Barometer: 30.28 inHg , 1025.4 hPa
Clouds: Clear
Visibility: 10 miles , 16 km
2021/02/26 03:55 KBAX 260355Z AUTO 00000KT 10SM CLR M08/M09 A3028 RMK AO2 T10771095
KFNT - Flint, Michigan, USA
Distance from station: SSW 68mi, 109km
Updated: Thu, 25-Feb-2021 10:53pm EST
Clear
Clear
 Wind from WSW
Wind: WSW 3 mph , 6 km/h
Temperature: 28°F , -2°C
Dew Point: 19°F , -7°C
Humidity: 69%
Barometer: 30.31 inHg , 1026.4 hPa
Clouds: Clear
Visibility: 10 miles , 16 km
2021/02/26 03:53 KFNT 260353Z 25003KT 10SM CLR M02/M07 A3031 RMK AO2 SLP275 T10171072
KMBS - Saginaw, Michigan, USA
Distance from station: SW 44mi, 70km
Updated: Thu, 25-Feb-2021 10:53pm EST
Clear
Clear
 Wind from WSW
Wind: WSW 3 mph , 6 km/h
Temperature: 27°F , -3°C
Dew Point: 18°F , -8°C
Humidity: 69%
Barometer: 30.30 inHg , 1026.1 hPa
Clouds: Clear
Visibility: 10 miles , 16 km
2021/02/26 03:53 KMBS 260353Z AUTO 24003KT 10SM CLR M03/M08 A3030 RMK AO2 SLP271 T10281083
 
KDTW - Detroit/Wayne, Michigan, USA
Distance from station: SSE 117mi, 188km
Updated: Thu, 25-Feb-2021 10:53pm EST
Few Clouds
Few Clouds
 Wind from WNW
Wind: WNW 8 mph , 13 km/h
Temperature: 30°F , -1°C
Wind Chill: 22°F , -6°C
Dew Point: 19°F , -7°C
Humidity: 64%
Barometer: 30.33 inHg , 1027.1 hPa
Clouds: Few Clouds
Visibility: 10 miles , 16 km
Cloud details: Few Clouds 20000 ft
2021/02/26 03:53 KDTW 260353Z 29007KT 10SM FEW200 M01/M07 A3033 RMK AO2 SLP279 T10061072
KP58 - Port Hope, Michigan, USA
Distance from station: ENE 30mi, 48km
Updated: Thu, 25-Feb-2021 10:55pm EST

 Wind from W
Wind: W 5 mph , 7 km/h
Temperature: 27°F , -3°C
Wind Chill: 21°F , -6°C
Dew Point: 18°F , -8°C
Humidity: 69%
Barometer: 30.27 inHg , 1025.1 hPa
2021/02/26 03:55 KP58 260355Z AUTO 26004KT M03/M08 A3027 RMK AO1 SLP263 T10281083
KCFS - Caro/Tuscola, Michigan, USA
Distance from station: S 31mi, 50km
Updated: Thu, 25-Feb-2021 10:55pm EST
Clear
Clear
 Wind from W
Wind: W 3 mph , 6 km/h
Temperature: 21°F , -6°C
Dew Point: 16°F , -9°C
Humidity: 80%
Barometer: 30.29 inHg , 1025.7 hPa
Clouds: Clear
Visibility: 10 miles , 16 km
2021/02/26 03:55 KCFS 260355Z AUTO 27003KT 10SM CLR M06/M09 A3029 RMK AO2 T10621092
 
KPHN - Port Huron, Michigan, USA
Distance from station: SSE 81mi, 131km
Updated: Thu, 25-Feb-2021 10:55pm EST
Clear
Clear
 Wind from calm
Wind: Calm
Temperature: 25°F , -4°C
Dew Point: 19°F , -7°C
Humidity: 80%
Barometer: 30.31 inHg , 1026.4 hPa
Clouds: Clear
Visibility: 10 miles , 16 km
2021/02/26 03:55 KPHN 260355Z AUTO 00000KT 10SM CLR M04/M07 A3031 RMK A
KPTK - Pontiac, Michigan, USA
Distance from station: S 86mi, 138km
Updated: Thu, 25-Feb-2021 10:53pm EST
Partly cloudy
Partly cloudy
 Wind from WSW
Wind: WSW 6 mph , 9 km/h
Temperature: 28°F , -2°C
Wind Chill: 21°F , -6°C
Dew Point: 23°F , -5°C
Humidity: 80%
Barometer: 30.29 inHg , 1025.7 hPa
Clouds: Partly cloudy
Visibility: 10 miles , 16 km
Cloud details: Partly cloudy 25000 ft
2021/02/26 03:53 KPTK 260353Z 24005KT 10SM SCT250 M02/M05 A3029 RMK AO2 SLP269 T10221050 $
KMTC - Selfridge Angb, Michigan, USA
Distance from station: SSE 94mi, 151km
Updated: Thu, 25-Feb-2021 10:56pm EST
Clear
Clear
 Wind from WSW
Wind: WSW 5 mph , 7 km/h
Temperature: 30°F , -1°C
Wind Chill: 25°F , -4°C
Dew Point: 23°F , -5°C
Humidity: 75%
Barometer: 30.30 inHg , 1026.1 hPa
Clouds: Clear
Visibility: 10 miles , 16 km
2021/02/26 03:56 KMTC 260356Z 25004KT 10SM CLR M01/M05 A3030 RMK AO2A SLP272 T10091055 $